sensor_id;sensor_type;location;lat;lon;timestamp;temperature;humidity
11132;DHT22;5620;53.570;9.718;2023-02-03T00:02:12;7.20;1.00
11132;DHT22;5620;53.570;9.718;2023-02-03T00:04:40;7.30;1.00
11132;DHT22;5620;53.570;9.718;2023-02-03T00:07:13;7.40;1.00
11132;DHT22;5620;53.570;9.718;2023-02-03T00:09:43;7.40;1.00
11132;DHT22;5620;53.570;9.718;2023-02-03T00:12:10;7.50;1.00
11132;DHT22;5620;53.570;9.718;2023-02-03T00:14:37;7.50;1.00
11132;DHT22;5620;53.570;9.718;2023-02-03T00:17:05;7.50;99.90
11132;DHT22;5620;53.570;9.718;2023-02-03T00:19:32;7.60;99.90
11132;DHT22;5620;53.570;9.718;2023-02-03T00:22:00;7.70;1.00
11132;DHT22;5620;53.570;9.718;2023-02-03T00:24:27;7.70;1.00
11132;DHT22;5620;53.570;9.718;2023-02-03T00:26:54;7.80;1.00
11132;DHT22;5620;53.570;9.718;2023-02-03T00:29:21;7.90;1.00
11132;DHT22;5620;53.570;9.718;2023-02-03T00:31:46;7.90;65.20
11132;DHT22;5620;53.570;9.718;2023-02-03T00:34:12;7.90;99.90
11132;DHT22;5620;53.570;9.718;2023-02-03T00:36:38;8.00;99.90
11132;DHT22;5620;53.570;9.718;2023-02-03T00:39:03;8.00;1.00
11132;DHT22;5620;53.570;9.718;2023-02-03T00:41:30;8.00;1.00
11132;DHT22;5620;53.570;9.718;2023-02-03T00:43:55;8.10;1.00
11132;DHT22;5620;53.570;9.718;2023-02-03T00:46:21;8.10;1.00
11132;DHT22;5620;53.570;9.718;2023-02-03T00:48:46;8.10;1.00
11132;DHT22;5620;53.570;9.718;2023-02-03T00:51:12;8.10;1.00
11132;DHT22;5620;53.570;9.718;2023-02-03T00:53:38;8.10;33.10
11132;DHT22;5620;53.570;9.718;2023-02-03T00:56:03;8.20;53.10
11132;DHT22;5620;53.570;9.718;2023-02-03T00:58:29;8.20;72.60
11132;DHT22;5620;53.570;9.718;2023-02-03T01:00:55;8.20;90.10
11132;DHT22;5620;53.570;9.718;2023-02-03T01:03:20;8.20;99.90
11132;DHT22;5620;53.570;9.718;2023-02-03T01:05:46;8.20;99.90
11132;DHT22;5620;53.570;9.718;2023-02-03T01:08:11;8.20;99.90
11132;DHT22;5620;53.570;9.718;2023-02-03T01:10:37;8.20;99.90
11132;DHT22;5620;53.570;9.718;2023-02-03T01:13:03;8.20;99.90
11132;DHT22;5620;53.570;9.718;2023-02-03T01:15:29;8.20;99.90
11132;DHT22;5620;53.570;9.718;2023-02-03T01:17:54;8.30;99.90
11132;DHT22;5620;53.570;9.718;2023-02-03T01:20:20;8.30;99.90
11132;DHT22;5620;53.570;9.718;2023-02-03T01:22:45;8.30;99.90
11132;DHT22;5620;53.570;9.718;2023-02-03T01:25:11;8.30;99.90
11132;DHT22;5620;53.570;9.718;2023-02-03T01:27:36;8.30;99.90
11132;DHT22;5620;53.570;9.718;2023-02-03T01:30:02;8.30;99.90
11132;DHT22;5620;53.570;9.718;2023-02-03T01:32:28;8.30;99.90
11132;DHT22;5620;53.570;9.718;2023-02-03T01:34:53;8.30;99.90
11132;DHT22;5620;53.570;9.718;2023-02-03T01:37:19;8.30;99.90
11132;DHT22;5620;53.570;9.718;2023-02-03T01:39:44;8.30;99.90
11132;DHT22;5620;53.570;9.718;2023-02-03T01:42:14;8.30;99.90
11132;DHT22;5620;53.570;9.718;2023-02-03T01:49:38;8.30;99.90
11132;DHT22;5620;53.570;9.718;2023-02-03T01:52:05;8.30;99.90
11132;DHT22;5620;53.570;9.718;2023-02-03T01:54:34;8.30;1.00
11132;DHT22;5620;53.570;9.718;2023-02-03T01:57:05;8.30;99.90
11132;DHT22;5620;53.570;9.718;2023-02-03T01:59:33;8.30;1.00
11132;DHT22;5620;53.570;9.718;2023-02-03T02:01:59;8.30;99.90
11132;DHT22;5620;53.570;9.718;2023-02-03T02:04:30;8.30;1.00
11132;DHT22;5620;53.570;9.718;2023-02-03T02:06:58;8.30;1.00
11132;DHT22;5620;53.570;9.718;2023-02-03T02:09:25;8.30;1.00
11132;DHT22;5620;53.570;9.718;2023-02-03T02:11:51;8.30;1.00
11132;DHT22;5620;53.570;9.718;2023-02-03T02:14:16;8.30;1.00
11132;DHT22;5620;53.570;9.718;2023-02-03T02:22:17;8.20;1.00
11132;DHT22;5620;53.570;9.718;2023-02-03T02:27:43;8.20;1.00
11132;DHT22;5620;53.570;9.718;2023-02-03T02:39:06;8.20;1.00
11132;DHT22;5620;53.570;9.718;2023-02-03T02:41:41;8.20;1.00
11132;DHT22;5620;53.570;9.718;2023-02-03T02:44:16;8.20;1.00
11132;DHT22;5620;53.570;9.718;2023-02-03T02:46:47;8.10;1.00
11132;DHT22;5620;53.570;9.718;2023-02-03T02:49:36;8.10;1.00
11132;DHT22;5620;53.570;9.718;2023-02-03T02:52:06;8.20;1.00
11132;DHT22;5620;53.570;9.718;2023-02-03T02:54:38;8.20;1.00
11132;DHT22;5620;53.570;9.718;2023-02-03T02:57:05;8.20;1.00
11132;DHT22;5620;53.570;9.718;2023-02-03T02:59:34;8.20;1.00
11132;DHT22;5620;53.570;9.718;2023-02-03T03:01:59;8.20;1.00
11132;DHT22;5620;53.570;9.718;2023-02-03T03:04:27;8.20;1.00
11132;DHT22;5620;53.570;9.718;2023-02-03T03:06:58;8.20;1.00
11132;DHT22;5620;53.570;9.718;2023-02-03T03:09:42;8.20;1.00
11132;DHT22;5620;53.570;9.718;2023-02-03T03:12:19;8.20;1.00
11132;DHT22;5620;53.570;9.718;2023-02-03T03:14:53;8.20;1.00
11132;DHT22;5620;53.570;9.718;2023-02-03T03:17:40;8.20;1.00
11132;DHT22;5620;53.570;9.718;2023-02-03T03:20:14;8.20;1.00
11132;DHT22;5620;53.570;9.718;2023-02-03T03:22:51;8.20;1.00
11132;DHT22;5620;53.570;9.718;2023-02-03T03:25:24;8.20;1.00
11132;DHT22;5620;53.570;9.718;2023-02-03T03:27:58;8.30;1.00
11132;DHT22;5620;53.570;9.718;2023-02-03T03:30:35;8.30;1.00
11132;DHT22;5620;53.570;9.718;2023-02-03T03:33:01;8.20;1.00
11132;DHT22;5620;53.570;9.718;2023-02-03T03:35:34;8.30;1.00
11132;DHT22;5620;53.570;9.718;2023-02-03T03:38:10;8.30;1.00
11132;DHT22;5620;53.570;9.718;2023-02-03T03:40:40;8.30;1.00
11132;DHT22;5620;53.570;9.718;2023-02-03T03:43:15;8.30;1.00
11132;DHT22;5620;53.570;9.718;2023-02-03T03:45:58;8.30;1.00
11132;DHT22;5620;53.570;9.718;2023-02-03T03:48:31;8.20;1.00
11132;DHT22;5620;53.570;9.718;2023-02-03T03:51:11;8.20;1.00
11132;DHT22;5620;53.570;9.718;2023-02-03T03:53:40;8.20;1.00
11132;DHT22;5620;53.570;9.718;2023-02-03T03:56:11;8.20;1.00
11132;DHT22;5620;53.570;9.718;2023-02-03T03:58:42;8.20;1.00
11132;DHT22;5620;53.570;9.718;2023-02-03T04:01:10;8.20;1.00
11132;DHT22;5620;53.570;9.718;2023-02-03T04:04:05;8.20;1.00
11132;DHT22;5620;53.570;9.718;2023-02-03T04:06:27;8.20;1.00
11132;DHT22;5620;53.570;9.718;2023-02-03T04:08:53;8.20;1.00
11132;DHT22;5620;53.570;9.718;2023-02-03T04:11:19;8.10;1.00
11132;DHT22;5620;53.570;9.718;2023-02-03T04:13:44;8.20;1.00
11132;DHT22;5620;53.570;9.718;2023-02-03T04:16:10;8.20;1.00
11132;DHT22;5620;53.570;9.718;2023-02-03T04:18:35;8.20;1.00
11132;DHT22;5620;53.570;9.718;2023-02-03T04:21:01;8.10;1.00
11132;DHT22;5620;53.570;9.718;2023-02-03T04:23:26;8.10;1.00
11132;DHT22;5620;53.570;9.718;2023-02-03T04:25:52;8.10;1.00
11132;DHT22;5620;53.570;9.718;2023-02-03T04:28:17;8.10;1.00
11132;DHT22;5620;53.570;9.718;2023-02-03T04:30:43;8.10;1.00
11132;DHT22;5620;53.570;9.718;2023-02-03T04:33:08;8.10;1.00
11132;DHT22;5620;53.570;9.718;2023-02-03T04:35:34;8.10;1.00
11132;DHT22;5620;53.570;9.718;2023-02-03T04:37:59;8.10;1.00
11132;DHT22;5620;53.570;9.718;2023-02-03T04:40:25;8.10;1.00
11132;DHT22;5620;53.570;9.718;2023-02-03T04:42:50;8.10;1.00
11132;DHT22;5620;53.570;9.718;2023-02-03T04:45:16;8.10;1.00
11132;DHT22;5620;53.570;9.718;2023-02-03T04:47:41;8.10;1.00
11132;DHT22;5620;53.570;9.718;2023-02-03T04:50:07;8.10;1.00
11132;DHT22;5620;53.570;9.718;2023-02-03T04:52:33;8.10;1.00
11132;DHT22;5620;53.570;9.718;2023-02-03T04:54:58;8.10;1.00
11132;DHT22;5620;53.570;9.718;2023-02-03T04:57:24;8.10;1.00
11132;DHT22;5620;53.570;9.718;2023-02-03T04:59:49;8.20;1.00
11132;DHT22;5620;53.570;9.718;2023-02-03T05:02:15;8.10;1.00
11132;DHT22;5620;53.570;9.718;2023-02-03T05:04:40;8.10;1.00
11132;DHT22;5620;53.570;9.718;2023-02-03T05:07:06;8.10;1.00
11132;DHT22;5620;53.570;9.718;2023-02-03T05:09:31;8.10;1.00
11132;DHT22;5620;53.570;9.718;2023-02-03T05:11:57;8.10;1.00
11132;DHT22;5620;53.570;9.718;2023-02-03T05:14:22;8.10;1.00
11132;DHT22;5620;53.570;9.718;2023-02-03T05:16:48;8.10;1.00
11132;DHT22;5620;53.570;9.718;2023-02-03T05:19:13;8.10;1.00
11132;DHT22;5620;53.570;9.718;2023-02-03T05:21:39;8.10;1.00
11132;DHT22;5620;53.570;9.718;2023-02-03T05:24:05;8.10;1.00
11132;DHT22;5620;53.570;9.718;2023-02-03T05:26:30;8.10;1.00
11132;DHT22;5620;53.570;9.718;2023-02-03T05:28:56;8.10;1.00
11132;DHT22;5620;53.570;9.718;2023-02-03T05:31:21;8.10;1.00
11132;DHT22;5620;53.570;9.718;2023-02-03T05:33:47;8.00;1.00
11132;DHT22;5620;53.570;9.718;2023-02-03T05:36:12;8.00;1.00
11132;DHT22;5620;53.570;9.718;2023-02-03T05:38:38;8.10;1.00
11132;DHT22;5620;53.570;9.718;2023-02-03T05:41:03;8.00;1.00
11132;DHT22;5620;53.570;9.718;2023-02-03T05:43:29;8.10;1.00
11132;DHT22;5620;53.570;9.718;2023-02-03T05:45:59;8.00;1.00
11132;DHT22;5620;53.570;9.718;2023-02-03T05:48:25;8.00;1.00
11132;DHT22;5620;53.570;9.718;2023-02-03T05:50:50;8.00;1.00
11132;DHT22;5620;53.570;9.718;2023-02-03T05:53:16;8.00;1.00
11132;DHT22;5620;53.570;9.718;2023-02-03T05:55:41;8.10;1.00
11132;DHT22;5620;53.570;9.718;2023-02-03T05:58:07;8.10;1.00
11132;DHT22;5620;53.570;9.718;2023-02-03T06:00:33;8.00;1.00
11132;DHT22;5620;53.570;9.718;2023-02-03T06:03:00;8.00;1.00
11132;DHT22;5620;53.570;9.718;2023-02-03T06:05:26;8.00;1.00
11132;DHT22;5620;53.570;9.718;2023-02-03T06:07:52;8.00;1.00
11132;DHT22;5620;53.570;9.718;2023-02-03T06:10:18;8.00;1.00
11132;DHT22;5620;53.570;9.718;2023-02-03T06:12:44;8.00;1.00
11132;DHT22;5620;53.570;9.718;2023-02-03T06:15:10;8.10;1.00
11132;DHT22;5620;53.570;9.718;2023-02-03T06:17:36;8.10;1.00
11132;DHT22;5620;53.570;9.718;2023-02-03T06:20:07;8.10;1.00
11132;DHT22;5620;53.570;9.718;2023-02-03T06:22:34;8.10;1.00
11132;DHT22;5620;53.570;9.718;2023-02-03T06:24:59;8.10;1.00
11132;DHT22;5620;53.570;9.718;2023-02-03T06:27:25;8.10;1.00
11132;DHT22;5620;53.570;9.718;2023-02-03T06:29:51;8.10;1.00
11132;DHT22;5620;53.570;9.718;2023-02-03T06:32:17;8.10;1.00
11132;DHT22;5620;53.570;9.718;2023-02-03T06:34:42;8.20;1.00
11132;DHT22;5620;53.570;9.718;2023-02-03T06:37:08;8.20;1.00
11132;DHT22;5620;53.570;9.718;2023-02-03T06:39:34;8.20;1.00
11132;DHT22;5620;53.570;9.718;2023-02-03T06:41:59;8.20;1.00
11132;DHT22;5620;53.570;9.718;2023-02-03T06:44:25;8.20;1.00
11132;DHT22;5620;53.570;9.718;2023-02-03T06:46:51;8.30;1.00
11132;DHT22;5620;53.570;9.718;2023-02-03T06:49:17;8.30;1.00
11132;DHT22;5620;53.570;9.718;2023-02-03T06:51:43;8.30;1.00
11132;DHT22;5620;53.570;9.718;2023-02-03T06:54:12;8.30;1.00
11132;DHT22;5620;53.570;9.718;2023-02-03T06:56:38;8.30;1.00
11132;DHT22;5620;53.570;9.718;2023-02-03T06:59:04;8.30;1.00
11132;DHT22;5620;53.570;9.718;2023-02-03T07:01:30;8.40;1.00
11132;DHT22;5620;53.570;9.718;2023-02-03T07:03:56;8.40;1.00
11132;DHT22;5620;53.570;9.718;2023-02-03T07:06:26;8.50;1.20
11132;DHT22;5620;53.570;9.718;2023-02-03T07:08:51;8.40;1.20
11132;DHT22;5620;53.570;9.718;2023-02-03T07:11:17;8.40;1.00
11132;DHT22;5620;53.570;9.718;2023-02-03T07:13:42;8.40;5.90
11132;DHT22;5620;53.570;9.718;2023-02-03T07:16:08;8.50;4.90
11132;DHT22;5620;53.570;9.718;2023-02-03T07:18:33;8.50;9.70
11132;DHT22;5620;53.570;9.718;2023-02-03T07:20:59;8.50;9.80
11132;DHT22;5620;53.570;9.718;2023-02-03T07:23:24;8.50;9.80
11132;DHT22;5620;53.570;9.718;2023-02-03T07:25:50;8.50;9.70
11132;DHT22;5620;53.570;9.718;2023-02-03T07:28:15;8.50;11.30
11132;DHT22;5620;53.570;9.718;2023-02-03T07:30:41;8.60;16.70
11132;DHT22;5620;53.570;9.718;2023-02-03T07:33:06;8.60;17.70
11132;DHT22;5620;53.570;9.718;2023-02-03T07:35:32;8.60;17.10
11132;DHT22;5620;53.570;9.718;2023-02-03T07:37:58;8.60;21.80
11132;DHT22;5620;53.570;9.718;2023-02-03T07:40:23;8.70;23.50
11132;DHT22;5620;53.570;9.718;2023-02-03T07:42:49;8.70;22.20
11132;DHT22;5620;53.570;9.718;2023-02-03T07:45:16;8.70;23.10
11132;DHT22;5620;53.570;9.718;2023-02-03T07:47:42;8.70;23.70
11132;DHT22;5620;53.570;9.718;2023-02-03T07:50:09;8.70;23.70
11132;DHT22;5620;53.570;9.718;2023-02-03T07:52:35;8.70;23.90
11132;DHT22;5620;53.570;9.718;2023-02-03T07:55:01;8.70;25.10
11132;DHT22;5620;53.570;9.718;2023-02-03T07:57:27;8.70;26.60
11132;DHT22;5620;53.570;9.718;2023-02-03T07:59:55;8.70;28.00
11132;DHT22;5620;53.570;9.718;2023-02-03T08:02:21;8.70;27.90
11132;DHT22;5620;53.570;9.718;2023-02-03T08:04:48;8.70;29.90
11132;DHT22;5620;53.570;9.718;2023-02-03T08:07:16;8.70;32.10
11132;DHT22;5620;53.570;9.718;2023-02-03T08:09:43;8.80;34.40
11132;DHT22;5620;53.570;9.718;2023-02-03T08:12:11;8.80;34.00
11132;DHT22;5620;53.570;9.718;2023-02-03T08:14:39;8.70;32.70
11132;DHT22;5620;53.570;9.718;2023-02-03T08:17:07;8.70;27.90
11132;DHT22;5620;53.570;9.718;2023-02-03T08:19:35;8.60;23.20
11132;DHT22;5620;53.570;9.718;2023-02-03T08:22:01;8.50;19.00
11132;DHT22;5620;53.570;9.718;2023-02-03T08:24:28;8.50;26.50
11132;DHT22;5620;53.570;9.718;2023-02-03T08:26:54;8.50;28.50
11132;DHT22;5620;53.570;9.718;2023-02-03T08:29:22;8.40;18.80
11132;DHT22;5620;53.570;9.718;2023-02-03T08:31:49;8.20;9.40
11132;DHT22;5620;53.570;9.718;2023-02-03T08:34:16;8.10;1.10
11132;DHT22;5620;53.570;9.718;2023-02-03T08:51:27;7.90;1.00
11132;DHT22;5620;53.570;9.718;2023-02-03T08:53:56;7.60;46.00
11132;DHT22;5620;53.570;9.718;2023-02-03T08:56:25;7.70;47.80
11132;DHT22;5620;53.570;9.718;2023-02-03T08:58:54;7.80;52.30
11132;DHT22;5620;53.570;9.718;2023-02-03T09:01:21;7.70;42.60
11132;DHT22;5620;53.570;9.718;2023-02-03T09:03:51;7.70;37.30
11132;DHT22;5620;53.570;9.718;2023-02-03T09:06:17;7.70;36.90
11132;DHT22;5620;53.570;9.718;2023-02-03T09:08:43;7.70;31.90
11132;DHT22;5620;53.570;9.718;2023-02-03T09:11:11;7.70;37.20
11132;DHT22;5620;53.570;9.718;2023-02-03T09:13:39;7.70;36.60
11132;DHT22;5620;53.570;9.718;2023-02-03T09:16:08;7.80;32.00
11132;DHT22;5620;53.570;9.718;2023-02-03T09:18:38;7.80;37.30
11132;DHT22;5620;53.570;9.718;2023-02-03T09:21:12;7.90;41.10
11132;DHT22;5620;53.570;9.718;2023-02-03T09:23:40;8.00;48.20
11132;DHT22;5620;53.570;9.718;2023-02-03T09:26:08;8.10;53.30
11132;DHT22;5620;53.570;9.718;2023-02-03T09:28:35;8.30;60.00
11132;DHT22;5620;53.570;9.718;2023-02-03T09:31:20;8.50;43.40
11132;DHT22;5620;53.570;9.718;2023-02-03T09:33:46;8.70;1.00
11132;DHT22;5620;53.570;9.718;2023-02-03T09:36:14;8.80;1.00
11132;DHT22;5620;53.570;9.718;2023-02-03T09:38:42;8.90;1.00
11132;DHT22;5620;53.570;9.718;2023-02-03T09:44:43;9.10;87.90
11132;DHT22;5620;53.570;9.718;2023-02-03T09:47:28;9.20;99.90
11132;DHT22;5620;53.570;9.718;2023-02-03T09:50:23;9.30;99.90
11132;DHT22;5620;53.570;9.718;2023-02-03T09:52:51;9.40;1.00
11132;DHT22;5620;53.570;9.718;2023-02-03T09:55:38;9.40;99.90
11132;DHT22;5620;53.570;9.718;2023-02-03T09:58:17;9.50;1.00
11132;DHT22;5620;53.570;9.718;2023-02-03T10:00:50;9.60;1.00
11132;DHT22;5620;53.570;9.718;2023-02-03T10:03:36;9.70;1.00
11132;DHT22;5620;53.570;9.718;2023-02-03T10:06:21;9.80;99.90
11132;DHT22;5620;53.570;9.718;2023-02-03T10:17:54;9.90;99.90
11132;DHT22;5620;53.570;9.718;2023-02-03T10:20:49;10.00;79.40
11132;DHT22;5620;53.570;9.718;2023-02-03T10:23:34;10.10;1.00
11132;DHT22;5620;53.570;9.718;2023-02-03T10:26:10;10.10;1.00
11132;DHT22;5620;53.570;9.718;2023-02-03T10:28:44;10.10;99.90
11132;DHT22;5620;53.570;9.718;2023-02-03T10:31:24;10.20;99.90
11132;DHT22;5620;53.570;9.718;2023-02-03T10:34:12;10.30;99.90
11132;DHT22;5620;53.570;9.718;2023-02-03T10:36:57;10.30;99.90
11132;DHT22;5620;53.570;9.718;2023-02-03T10:39:46;10.20;99.90
11132;DHT22;5620;53.570;9.718;2023-02-03T10:42:25;10.30;99.90
11132;DHT22;5620;53.570;9.718;2023-02-03T10:45:10;10.40;96.40
11132;DHT22;5620;53.570;9.718;2023-02-03T10:47:41;10.60;90.80
11132;DHT22;5620;53.570;9.718;2023-02-03T10:50:24;10.60;21.70
11132;DHT22;5620;53.570;9.718;2023-02-03T10:56:15;10.60;38.20
11132;DHT22;5620;53.570;9.718;2023-02-03T10:58:59;10.80;61.20
11132;DHT22;5620;53.570;9.718;2023-02-03T11:04:30;10.90;1.00
11132;DHT22;5620;53.570;9.718;2023-02-03T11:07:22;10.90;1.00
11132;DHT22;5620;53.570;9.718;2023-02-03T11:09:51;11.00;1.00
11132;DHT22;5620;53.570;9.718;2023-02-03T11:12:20;11.20;1.00
11132;DHT22;5620;53.570;9.718;2023-02-03T11:14:52;11.40;1.00
11132;DHT22;5620;53.570;9.718;2023-02-03T11:17:25;11.40;1.00
11132;DHT22;5620;53.570;9.718;2023-02-03T11:19:54;11.50;1.00
11132;DHT22;5620;53.570;9.718;2023-02-03T11:22:41;11.60;1.00
11132;DHT22;5620;53.570;9.718;2023-02-03T11:25:27;11.80;1.00
11132;DHT22;5620;53.570;9.718;2023-02-03T11:28:04;12.00;1.00
11132;DHT22;5620;53.570;9.718;2023-02-03T11:30:34;12.40;1.00
11132;DHT22;5620;53.570;9.718;2023-02-03T11:33:01;12.20;99.90
11132;DHT22;5620;53.570;9.718;2023-02-03T11:35:30;12.30;99.90
11132;DHT22;5620;53.570;9.718;2023-02-03T11:37:59;12.30;99.90
11132;DHT22;5620;53.570;9.718;2023-02-03T11:40:31;12.00;99.90
11132;DHT22;5620;53.570;9.718;2023-02-03T11:43:17;11.80;99.90
11132;DHT22;5620;53.570;9.718;2023-02-03T11:45:47;11.90;99.90
11132;DHT22;5620;53.570;9.718;2023-02-03T11:57:27;11.80;99.90
11132;DHT22;5620;53.570;9.718;2023-02-03T12:18:13;13.10;99.90
11132;DHT22;5620;53.570;9.718;2023-02-03T12:27:19;12.30;99.90
11132;DHT22;5620;53.570;9.718;2023-02-03T12:29:58;12.10;99.90
11132;DHT22;5620;53.570;9.718;2023-02-03T12:41:08;11.20;99.90
11132;DHT22;5620;53.570;9.718;2023-02-03T12:43:51;11.10;99.90
11132;DHT22;5620;53.570;9.718;2023-02-03T12:46:43;10.90;99.90
11132;DHT22;5620;53.570;9.718;2023-02-03T12:55:22;10.60;99.90
11132;DHT22;5620;53.570;9.718;2023-02-03T12:58:02;10.60;99.90
11132;DHT22;5620;53.570;9.718;2023-02-03T13:00:55;10.60;99.90
11132;DHT22;5620;53.570;9.718;2023-02-03T13:14:58;10.70;99.90
11132;DHT22;5620;53.570;9.718;2023-02-03T13:18:06;10.70;99.90
11132;DHT22;5620;53.570;9.718;2023-02-03T13:20:36;10.70;99.90
11132;DHT22;5620;53.570;9.718;2023-02-03T13:23:10;10.60;99.90
11132;DHT22;5620;53.570;9.718;2023-02-03T13:25:46;10.60;99.90
11132;DHT22;5620;53.570;9.718;2023-02-03T13:37:00;10.30;99.90
11132;DHT22;5620;53.570;9.718;2023-02-03T13:42:43;10.10;99.90
11132;DHT22;5620;53.570;9.718;2023-02-03T13:45:26;10.00;99.90
11132;DHT22;5620;53.570;9.718;2023-02-03T13:48:06;9.90;99.90
11132;DHT22;5620;53.570;9.718;2023-02-03T13:50:36;9.90;99.90
11132;DHT22;5620;53.570;9.718;2023-02-03T13:53:15;10.00;1.00
11132;DHT22;5620;53.570;9.718;2023-02-03T13:58:29;9.90;99.90
11132;DHT22;5620;53.570;9.718;2023-02-03T14:05:54;9.70;1.00
11132;DHT22;5620;53.570;9.718;2023-02-03T14:16:51;9.50;1.00
11132;DHT22;5620;53.570;9.718;2023-02-03T14:21:55;9.40;1.00
11132;DHT22;5620;53.570;9.718;2023-02-03T14:24:22;9.40;1.00
11132;DHT22;5620;53.570;9.718;2023-02-03T14:26:51;9.30;1.00
11132;DHT22;5620;53.570;9.718;2023-02-03T14:29:27;9.30;1.00
11132;DHT22;5620;53.570;9.718;2023-02-03T14:34:38;9.30;1.00
11132;DHT22;5620;53.570;9.718;2023-02-03T14:37:23;9.30;1.00
11132;DHT22;5620;53.570;9.718;2023-02-03T14:46:07;9.20;1.00
11132;DHT22;5620;53.570;9.718;2023-02-03T14:48:49;9.10;1.00
11132;DHT22;5620;53.570;9.718;2023-02-03T15:02:28;9.00;1.00
11132;DHT22;5620;53.570;9.718;2023-02-03T15:10:19;9.00;1.00
11132;DHT22;5620;53.570;9.718;2023-02-03T15:12:47;9.00;1.00
11132;DHT22;5620;53.570;9.718;2023-02-03T15:17:43;9.00;1.00
11132;DHT22;5620;53.570;9.718;2023-02-03T15:22:49;8.90;1.00
11132;DHT22;5620;53.570;9.718;2023-02-03T15:25:18;8.80;1.00
11132;DHT22;5620;53.570;9.718;2023-02-03T15:27:44;8.80;1.00
11132;DHT22;5620;53.570;9.718;2023-02-03T15:32:47;8.80;1.00
11132;DHT22;5620;53.570;9.718;2023-02-03T15:35:19;8.70;1.00
11132;DHT22;5620;53.570;9.718;2023-02-03T15:40:26;8.70;4.50
11132;DHT22;5620;53.570;9.718;2023-02-03T15:43:20;8.70;1.00
11132;DHT22;5620;53.570;9.718;2023-02-03T15:46:03;8.70;1.00
11132;DHT22;5620;53.570;9.718;2023-02-03T15:53:46;8.70;1.00
11132;DHT22;5620;53.570;9.718;2023-02-03T15:56:37;8.70;1.00
11132;DHT22;5620;53.570;9.718;2023-02-03T15:59:04;8.80;1.00
11132;DHT22;5620;53.570;9.718;2023-02-03T16:01:30;8.80;1.00
11132;DHT22;5620;53.570;9.718;2023-02-03T16:03:56;8.80;1.00
11132;DHT22;5620;53.570;9.718;2023-02-03T16:06:24;8.80;1.00
11132;DHT22;5620;53.570;9.718;2023-02-03T16:08:50;8.80;1.00
11132;DHT22;5620;53.570;9.718;2023-02-03T16:11:35;8.80;1.00
11132;DHT22;5620;53.570;9.718;2023-02-03T16:14:11;8.70;1.00
11132;DHT22;5620;53.570;9.718;2023-02-03T16:16:55;8.60;1.00
11132;DHT22;5620;53.570;9.718;2023-02-03T16:19:21;8.60;1.00
11132;DHT22;5620;53.570;9.718;2023-02-03T16:21:53;8.60;1.00
11132;DHT22;5620;53.570;9.718;2023-02-03T16:24:39;8.60;1.00
11132;DHT22;5620;53.570;9.718;2023-02-03T16:29:50;8.70;1.00
11132;DHT22;5620;53.570;9.718;2023-02-03T16:32:17;8.70;1.00
11132;DHT22;5620;53.570;9.718;2023-02-03T16:34:43;8.70;1.00
11132;DHT22;5620;53.570;9.718;2023-02-03T16:39:44;8.70;1.00
11132;DHT22;5620;53.570;9.718;2023-02-03T16:42:18;8.60;1.00
11132;DHT22;5620;53.570;9.718;2023-02-03T16:44:44;8.60;1.00
11132;DHT22;5620;53.570;9.718;2023-02-03T16:47:27;8.60;1.00
11132;DHT22;5620;53.570;9.718;2023-02-03T16:49:53;8.60;1.00
11132;DHT22;5620;53.570;9.718;2023-02-03T16:52:18;8.50;1.00
11132;DHT22;5620;53.570;9.718;2023-02-03T16:54:44;8.40;11.20
11132;DHT22;5620;53.570;9.718;2023-02-03T16:57:09;8.20;52.60
11132;DHT22;5620;53.570;9.718;2023-02-03T16:59:35;8.10;99.90
11132;DHT22;5620;53.570;9.718;2023-02-03T17:02:00;8.00;99.90
11132;DHT22;5620;53.570;9.718;2023-02-03T17:04:26;8.00;99.90
11132;DHT22;5620;53.570;9.718;2023-02-03T17:06:51;8.00;99.90
11132;DHT22;5620;53.570;9.718;2023-02-03T17:09:18;8.00;99.90
11132;DHT22;5620;53.570;9.718;2023-02-03T17:11:43;8.00;1.00
11132;DHT22;5620;53.570;9.718;2023-02-03T17:14:09;8.00;1.00
11132;DHT22;5620;53.570;9.718;2023-02-03T17:16:34;8.00;1.00
11132;DHT22;5620;53.570;9.718;2023-02-03T17:19:00;8.00;1.00
11132;DHT22;5620;53.570;9.718;2023-02-03T17:21:27;8.00;1.00
11132;DHT22;5620;53.570;9.718;2023-02-03T17:23:53;8.00;1.00
11132;DHT22;5620;53.570;9.718;2023-02-03T17:26:19;8.10;70.10
11132;DHT22;5620;53.570;9.718;2023-02-03T17:28:45;8.10;38.40
11132;DHT22;5620;53.570;9.718;2023-02-03T17:31:18;8.20;1.00
11132;DHT22;5620;53.570;9.718;2023-02-03T17:33:45;8.30;1.00
11132;DHT22;5620;53.570;9.718;2023-02-03T17:36:16;8.40;1.00
11132;DHT22;5620;53.570;9.718;2023-02-03T17:38:48;8.40;1.00
11132;DHT22;5620;53.570;9.718;2023-02-03T17:41:18;8.50;1.00
11132;DHT22;5620;53.570;9.718;2023-02-03T17:43:46;8.50;1.00
11132;DHT22;5620;53.570;9.718;2023-02-03T17:46:14;8.40;1.00
11132;DHT22;5620;53.570;9.718;2023-02-03T17:48:40;8.40;1.00
11132;DHT22;5620;53.570;9.718;2023-02-03T17:51:09;8.20;1.00
11132;DHT22;5620;53.570;9.718;2023-02-03T17:53:35;8.00;1.00
11132;DHT22;5620;53.570;9.718;2023-02-03T17:56:06;7.80;91.60
11132;DHT22;5620;53.570;9.718;2023-02-03T17:58:32;7.50;1.00
11132;DHT22;5620;53.570;9.718;2023-02-03T18:00:58;7.30;99.90
11132;DHT22;5620;53.570;9.718;2023-02-03T18:03:23;7.20;99.90
11132;DHT22;5620;53.570;9.718;2023-02-03T18:05:52;7.10;99.90
11132;DHT22;5620;53.570;9.718;2023-02-03T18:08:17;7.00;99.90
11132;DHT22;5620;53.570;9.718;2023-02-03T18:10:49;7.00;99.90
11132;DHT22;5620;53.570;9.718;2023-02-03T18:13:15;6.90;99.90
11132;DHT22;5620;53.570;9.718;2023-02-03T18:15:42;6.90;1.00
11132;DHT22;5620;53.570;9.718;2023-02-03T18:18:08;6.90;99.90
11132;DHT22;5620;53.570;9.718;2023-02-03T18:20:40;6.80;1.00
11132;DHT22;5620;53.570;9.718;2023-02-03T18:23:05;6.80;99.90
11132;DHT22;5620;53.570;9.718;2023-02-03T18:25:36;6.70;99.90
11132;DHT22;5620;53.570;9.718;2023-02-03T18:28:06;6.70;72.30
11132;DHT22;5620;53.570;9.718;2023-02-03T18:30:35;6.70;99.90
11132;DHT22;5620;53.570;9.718;2023-02-03T18:33:01;6.70;1.00
11132;DHT22;5620;53.570;9.718;2023-02-03T18:35:28;6.70;1.00
11132;DHT22;5620;53.570;9.718;2023-02-03T18:37:54;6.70;53.90
11132;DHT22;5620;53.570;9.718;2023-02-03T18:40:19;6.70;95.80
11132;DHT22;5620;53.570;9.718;2023-02-03T18:42:46;6.70;99.90
11132;DHT22;5620;53.570;9.718;2023-02-03T18:45:13;6.70;99.90
11132;DHT22;5620;53.570;9.718;2023-02-03T18:47:38;6.80;99.90
11132;DHT22;5620;53.570;9.718;2023-02-03T18:50:04;6.80;99.90
11132;DHT22;5620;53.570;9.718;2023-02-03T18:52:31;6.80;99.90
11132;DHT22;5620;53.570;9.718;2023-02-03T18:54:58;6.90;99.90
11132;DHT22;5620;53.570;9.718;2023-02-03T18:57:26;6.90;99.90
11132;DHT22;5620;53.570;9.718;2023-02-03T18:59:52;6.90;99.90
11132;DHT22;5620;53.570;9.718;2023-02-03T19:02:19;6.90;99.90
11132;DHT22;5620;53.570;9.718;2023-02-03T19:04:46;7.00;99.90
11132;DHT22;5620;53.570;9.718;2023-02-03T19:07:13;7.00;99.90
11132;DHT22;5620;53.570;9.718;2023-02-03T19:09:41;7.00;99.90
11132;DHT22;5620;53.570;9.718;2023-02-03T19:12:07;7.00;99.90
11132;DHT22;5620;53.570;9.718;2023-02-03T19:14:36;7.00;99.90
11132;DHT22;5620;53.570;9.718;2023-02-03T19:17:04;7.00;99.90
11132;DHT22;5620;53.570;9.718;2023-02-03T19:19:30;7.00;99.90
11132;DHT22;5620;53.570;9.718;2023-02-03T19:21:56;7.00;99.90
11132;DHT22;5620;53.570;9.718;2023-02-03T19:24:23;7.00;99.90
11132;DHT22;5620;53.570;9.718;2023-02-03T19:26:50;7.00;99.90
11132;DHT22;5620;53.570;9.718;2023-02-03T19:29:18;7.00;99.90
11132;DHT22;5620;53.570;9.718;2023-02-03T19:31:45;7.00;99.90
11132;DHT22;5620;53.570;9.718;2023-02-03T19:34:18;7.00;99.90
11132;DHT22;5620;53.570;9.718;2023-02-03T19:36:53;7.00;99.90
11132;DHT22;5620;53.570;9.718;2023-02-03T19:39:21;7.00;99.90